Melocheville, Canada
Current Conditions -  °F | °C
As of 7:00 AM on Thursday 27 Nov 2014 (Local Time) from CYUL Reporting Station
Overcast Overcast  
Wind Chill: 20°   Ceiling: 3200
Heat Index: 28°   Visibility: 15mi
Dew Point: 18°   Wind: 9mph
Humidity: 64%   Direction: 10°N
Pressure: 30.02"   Gusts: NA
Location:  45.32°N, 73.93°W
Report Text: CYUL 271200Z 01008KT 15SM FEW025 OVC032 M02/M08 A3002 RMK SC1SC7 SLP168
Loading
Personal Weather Stations






























Interactive Weather Map New forecast layout! Learn more

10-Day Weather Forecast

Advertisements
Track Severe Weather on mobile